createdAt,value
2018-03-22T00:00:55.372Z,8.93
2018-03-22T00:03:23.613Z,8.80
2018-03-22T00:05:51.117Z,9.73
2018-03-22T00:08:18.599Z,8.67
2018-03-22T00:10:46.311Z,8.00
2018-03-22T00:13:13.808Z,8.53
2018-03-22T00:15:41.339Z,8.60
2018-03-22T00:18:09.613Z,8.40
2018-03-22T00:20:37.899Z,8.23
2018-03-22T00:23:06.467Z,8.07
2018-03-22T00:25:34.714Z,8.40
2018-03-22T00:28:02.198Z,7.87
2018-03-22T00:30:30.472Z,8.47
2018-03-22T00:32:58.751Z,8.33
2018-03-22T00:35:27.109Z,7.90
2018-03-22T00:37:54.581Z,9.07
2018-03-22T00:40:22.166Z,9.00
2018-03-22T00:42:49.700Z,8.37
2018-03-22T00:45:17.323Z,8.27
2018-03-22T00:47:44.809Z,7.40
2018-03-22T00:50:12.381Z,8.00
2018-03-22T00:52:40.762Z,6.93
2018-03-22T00:55:09.272Z,6.30
2018-03-22T00:57:36.804Z,6.10
2018-03-22T01:00:05.071Z,5.37
2018-03-22T01:02:32.830Z,5.27
2018-03-22T01:05:00.385Z,5.60
2018-03-22T01:07:27.945Z,4.30
2018-03-22T01:09:55.418Z,5.63
2018-03-22T01:12:23.701Z,7.03
2018-03-22T01:14:51.349Z,6.30
2018-03-22T01:17:19.626Z,6.90
2018-03-22T01:19:47.909Z,6.10
2018-03-22T01:22:16.170Z,6.07
2018-03-22T01:24:44.599Z,5.80
2018-03-22T01:27:12.114Z,6.10
2018-03-22T01:29:40.350Z,6.20
2018-03-22T01:32:07.933Z,5.40
2018-03-22T01:34:35.506Z,5.03
2018-03-22T01:37:03.734Z,5.30
2018-03-22T01:39:31.206Z,5.27
2018-03-22T01:41:58.675Z,4.87
2018-03-22T01:44:26.374Z,4.80
2018-03-22T01:46:53.965Z,4.70
2018-03-22T01:49:21.466Z,4.93
2018-03-22T01:51:49.059Z,4.67
2018-03-22T01:54:17.317Z,4.83
2018-03-22T01:56:44.807Z,4.33
2018-03-22T01:59:12.341Z,5.80
2018-03-22T02:01:39.886Z,6.40
2018-03-22T02:04:08.120Z,7.80
2018-03-22T02:06:36.234Z,7.83
2018-03-22T02:09:04.508Z,7.20
2018-03-22T02:11:32.919Z,7.83
2018-03-22T02:14:00.434Z,6.83
2018-03-22T02:16:29.023Z,6.73
2018-03-22T02:18:56.586Z,5.60
2018-03-22T02:21:24.861Z,5.30
2018-03-22T02:23:53.129Z,4.90
2018-03-22T02:26:20.902Z,5.07
2018-03-22T02:28:49.133Z,5.40
2018-03-22T02:31:16.613Z,5.40
2018-03-22T02:33:44.107Z,5.33
2018-03-22T02:36:11.690Z,5.37
2018-03-22T02:38:39.201Z,5.37
2018-03-22T02:41:06.757Z,5.20
2018-03-22T02:43:34.628Z,5.43
2018-03-22T02:46:02.186Z,5.73
2018-03-22T02:48:29.744Z,5.77
2018-03-22T02:50:57.320Z,5.73
2018-03-22T02:53:24.857Z,5.37
2018-03-22T02:55:52.725Z,5.03
2018-03-22T02:58:20.288Z,5.53
2018-03-22T03:00:47.842Z,5.80
2018-03-22T03:03:15.602Z,6.37
2018-03-22T03:05:43.170Z,5.90
2018-03-22T03:08:10.730Z,5.90
2018-03-22T03:10:38.280Z,6.30
2018-03-22T03:13:06.145Z,5.80
2018-03-22T03:15:33.715Z,6.27
2018-03-22T03:18:02.014Z,6.27
2018-03-22T03:20:29.557Z,5.33
2018-03-22T03:22:57.789Z,5.63
2018-03-22T03:25:25.335Z,5.97
2018-03-22T03:27:52.842Z,5.93
2018-03-22T03:30:21.119Z,6.23
2018-03-22T03:32:49.453Z,5.90
2018-03-22T03:35:16.935Z,5.83
2018-03-22T03:37:44.727Z,5.87
2018-03-22T03:40:12.966Z,5.93
2018-03-22T03:42:40.470Z,6.50
2018-03-22T03:45:08.039Z,5.97
2018-03-22T03:47:35.567Z,5.97
2018-03-22T03:50:03.905Z,5.70
2018-03-22T03:52:31.404Z,5.30
2018-03-22T03:54:59.638Z,6.70
2018-03-22T03:57:27.136Z,5.67
2018-03-22T03:59:55.734Z,5.70
2018-03-22T04:02:23.985Z,5.90
2018-03-22T04:04:51.454Z,6.40
2018-03-22T04:07:19.773Z,5.63
2018-03-22T04:09:47.278Z,6.27
2018-03-22T04:12:15.061Z,6.20
2018-03-22T04:14:43.580Z,5.57
2018-03-22T04:17:11.042Z,5.87
2018-03-22T04:19:39.093Z,5.73
2018-03-22T04:22:06.618Z,5.77
2018-03-22T04:24:34.324Z,5.80
2018-03-22T04:27:01.798Z,5.57
2018-03-22T04:29:29.373Z,6.53
2018-03-22T04:31:56.837Z,5.93
2018-03-22T04:34:24.398Z,6.47
2018-03-22T04:36:51.963Z,6.30
2018-03-22T04:39:19.832Z,6.50
2018-03-22T04:41:48.253Z,6.33
2018-03-22T04:44:16.085Z,6.60
2018-03-22T04:46:44.554Z,6.27
2018-03-22T04:49:12.119Z,6.53
2018-03-22T04:51:40.362Z,6.57
2018-03-22T04:54:07.942Z,7.60
2018-03-22T04:56:35.506Z,6.50
2018-03-22T04:59:03.266Z,6.27
2018-03-22T05:01:30.831Z,6.00
2018-03-22T05:03:59.221Z,6.90
2018-03-22T05:06:27.481Z,6.63
2018-03-22T05:08:55.045Z,6.97
2018-03-22T05:11:23.314Z,6.80
2018-03-22T05:13:50.880Z,7.03
2018-03-22T05:16:19.553Z,6.50
2018-03-22T05:18:47.066Z,6.80
2018-03-22T05:21:14.568Z,6.57
2018-03-22T05:23:42.133Z,7.07
2018-03-22T05:26:10.519Z,7.47
2018-03-22T05:28:38.889Z,7.70
2018-03-22T05:31:06.460Z,6.97
2018-03-22T05:33:34.774Z,7.73
2018-03-22T05:36:02.243Z,7.20
2018-03-22T05:38:29.733Z,7.70
2018-03-22T05:40:57.193Z,7.90
2018-03-22T05:43:24.994Z,7.80
2018-03-22T05:45:52.739Z,8.00
2018-03-22T05:48:21.002Z,7.67
2018-03-22T05:50:48.567Z,8.10
2018-03-22T05:53:16.797Z,7.77
2018-03-22T05:55:44.418Z,7.93
2018-03-22T05:58:12.654Z,8.13
2018-03-22T06:00:40.129Z,7.50
2018-03-22T06:03:07.825Z,7.30
2018-03-22T06:05:35.295Z,7.10
2018-03-22T06:08:02.765Z,7.83
2018-03-22T06:10:30.261Z,7.10
2018-03-22T06:12:57.828Z,8.00
2018-03-22T06:15:26.389Z,6.73
2018-03-22T06:17:53.862Z,7.67
2018-03-22T06:20:22.090Z,8.17
2018-03-22T06:22:49.599Z,7.97
2018-03-22T06:25:17.834Z,8.97
2018-03-22T06:27:45.381Z,8.53
2018-03-22T06:30:13.190Z,7.77
2018-03-22T06:32:40.746Z,9.00
2018-03-22T06:35:08.310Z,8.20
2018-03-22T06:37:35.773Z,9.50
2018-03-22T06:40:04.101Z,9.83
2018-03-22T06:42:31.549Z,10.37
2018-03-22T06:44:59.294Z,10.90
2018-03-22T06:47:26.817Z,11.70
2018-03-22T06:49:54.391Z,11.00
2018-03-22T06:52:22.667Z,11.97
2018-03-22T06:54:50.912Z,11.23
2018-03-22T06:57:18.442Z,11.87
2018-03-22T06:59:45.910Z,11.07
2018-03-22T07:02:13.377Z,10.90
2018-03-22T07:04:40.848Z,10.73
2018-03-22T07:07:08.469Z,11.13
2018-03-22T07:09:35.981Z,13.03
2018-03-22T07:12:03.845Z,33.40
2018-03-22T07:14:33.283Z,19.20
2018-03-22T07:17:00.810Z,12.70
2018-03-22T07:19:28.425Z,11.13
2018-03-22T07:21:55.894Z,10.60
2018-03-22T07:24:23.358Z,10.87
2018-03-22T07:26:50.866Z,10.80
2018-03-22T07:29:18.346Z,13.27
2018-03-22T07:31:46.007Z,10.93
2018-03-22T07:34:13.486Z,10.70
2018-03-22T07:36:40.982Z,9.37
2018-03-22T07:39:09.216Z,9.70
2018-03-22T07:41:36.989Z,9.60
2018-03-22T07:44:10.212Z,8.90
2018-03-22T07:46:38.470Z,9.93
2018-03-22T07:49:05.961Z,9.23
2018-03-22T07:51:33.478Z,10.50
2018-03-22T07:54:01.194Z,10.53
2018-03-22T07:56:28.719Z,9.97
2018-03-22T07:58:57.684Z,10.77
2018-03-22T08:01:25.174Z,11.43
2018-03-22T08:03:53.406Z,11.23
2018-03-22T08:06:20.873Z,11.77
2018-03-22T08:08:48.362Z,11.60
2018-03-22T08:11:16.833Z,12.30
2018-03-22T08:13:44.389Z,12.87
2018-03-22T08:16:11.969Z,13.07
2018-03-22T08:18:40.481Z,13.47
2018-03-22T08:21:07.949Z,13.87
2018-03-22T08:23:35.446Z,13.07
2018-03-22T08:26:02.913Z,13.20
2018-03-22T08:28:31.298Z,14.07
2018-03-22T08:30:59.562Z,13.40
2018-03-22T08:33:27.839Z,13.60
2018-03-22T08:35:56.075Z,13.77
2018-03-22T08:38:23.586Z,15.07
2018-03-22T08:40:51.880Z,14.73
2018-03-22T08:43:19.341Z,15.17
2018-03-22T08:45:46.822Z,14.37
2018-03-22T08:48:14.346Z,14.73
2018-03-22T08:50:41.869Z,15.40
2018-03-22T08:53:09.462Z,17.20
2018-03-22T08:55:36.993Z,16.67
2018-03-22T08:58:04.575Z,18.20
2018-03-22T09:00:33.575Z,16.57
2018-03-22T09:03:01.104Z,17.23
2018-03-22T09:05:29.337Z,17.73
2018-03-22T09:07:56.846Z,17.27
2018-03-22T09:10:25.078Z,18.47
2018-03-22T09:12:52.572Z,19.10
2018-03-22T09:15:20.857Z,19.33
2018-03-22T09:17:49.091Z,19.83
2018-03-22T09:20:16.630Z,19.57
2018-03-22T09:22:44.106Z,20.20
2018-03-22T09:25:11.574Z,19.13
2018-03-22T09:27:39.041Z,19.83
2018-03-22T09:30:06.608Z,19.93
2018-03-22T09:32:34.637Z,19.77
2018-03-22T09:35:02.144Z,18.70
2018-03-22T09:37:30.425Z,18.73
2018-03-22T09:39:57.853Z,19.33
2018-03-22T09:42:25.323Z,19.43
2018-03-22T09:44:52.849Z,20.40
2018-03-22T09:47:20.318Z,19.43
2018-03-22T09:49:47.794Z,19.97
2018-03-22T09:52:16.034Z,20.10
2018-03-22T09:54:43.526Z,18.77
2018-03-22T09:57:11.090Z,20.13
2018-03-22T09:59:39.461Z,19.30
2018-03-22T10:02:06.933Z,18.60
2018-03-22T10:04:35.165Z,19.73
2018-03-22T10:07:02.662Z,19.60
2018-03-22T10:09:30.274Z,19.80
2018-03-22T10:11:57.747Z,20.53
2018-03-22T10:14:25.213Z,20.17
2018-03-22T10:16:52.787Z,20.80
2018-03-22T10:19:20.627Z,20.90
2018-03-22T10:21:48.114Z,21.57
2018-03-22T10:24:16.345Z,21.77
2018-03-22T10:26:43.819Z,22.53
2018-03-22T10:29:11.282Z,23.47
2018-03-22T10:31:39.057Z,21.87
2018-03-22T10:34:06.602Z,23.20
2018-03-22T10:36:34.101Z,22.33
2018-03-22T10:39:01.654Z,20.80
2018-03-22T10:41:29.907Z,24.50
2018-03-22T10:43:57.925Z,21.23
2018-03-22T10:46:25.390Z,21.07
2018-03-22T10:48:53.026Z,22.90
2018-03-22T10:51:20.508Z,21.20
2018-03-22T10:53:48.017Z,20.33
2018-03-22T10:56:15.774Z,21.33
2018-03-22T10:58:43.340Z,20.93
2018-03-22T11:01:17.142Z,20.73
2018-03-22T11:03:50.373Z,20.90
2018-03-22T11:06:18.134Z,22.27
2018-03-22T11:08:45.661Z,21.87
2018-03-22T11:11:13.128Z,23.73
2018-03-22T11:13:41.375Z,23.17
2018-03-22T11:16:08.902Z,23.60
2018-03-22T11:18:36.719Z,24.57
2018-03-22T11:21:05.216Z,24.23
2018-03-22T11:23:33.467Z,24.30
2018-03-22T11:26:01.229Z,24.77
2018-03-22T11:28:28.798Z,24.07
2018-03-22T11:30:57.279Z,25.17
2018-03-22T11:33:25.540Z,24.73
2018-03-22T11:35:53.105Z,25.17
2018-03-22T11:38:21.014Z,26.40
2018-03-22T11:40:48.513Z,26.40
2018-03-22T11:43:16.193Z,24.17
2018-03-22T11:45:43.962Z,25.40
2018-03-22T11:48:12.295Z,24.17
2018-03-22T11:50:40.198Z,24.57
2018-03-22T11:53:07.663Z,24.37
2018-03-22T11:55:35.894Z,24.57
2018-03-22T11:58:03.495Z,21.30
2018-03-22T12:00:31.880Z,22.73
2018-03-22T12:03:00.452Z,22.40
2018-03-22T12:05:28.223Z,21.53
2018-03-22T12:07:56.604Z,21.90
2018-03-22T12:10:24.849Z,22.17
2018-03-22T12:12:52.330Z,22.33
2018-03-22T12:15:19.802Z,21.97
2018-03-22T12:17:48.180Z,20.60
2018-03-22T12:20:16.410Z,23.00
2018-03-22T12:22:44.921Z,22.53
2018-03-22T12:25:12.524Z,21.37
2018-03-22T12:27:40.310Z,21.70
2018-03-22T12:30:08.014Z,21.63
2018-03-22T12:32:35.670Z,20.00
2018-03-22T12:35:03.272Z,22.17
2018-03-22T12:37:30.754Z,21.60
2018-03-22T12:39:58.239Z,22.20
2018-03-22T12:42:25.810Z,23.00
2018-03-22T12:44:54.291Z,21.67
2018-03-22T12:47:22.045Z,21.73
2018-03-22T12:49:50.054Z,23.13
2018-03-22T12:52:17.664Z,22.53
2018-03-22T12:54:45.144Z,22.17
2018-03-22T12:57:13.379Z,22.03
2018-03-22T12:59:40.864Z,22.80
2018-03-22T13:02:08.355Z,23.73
2018-03-22T13:04:35.883Z,22.87
2018-03-22T13:07:03.648Z,23.73
2018-03-22T13:09:31.118Z,24.27
2018-03-22T13:11:59.360Z,23.43
2018-03-22T13:14:26.825Z,24.17
2018-03-22T13:16:54.300Z,25.23
2018-03-22T13:19:22.550Z,23.77
2018-03-22T13:21:50.057Z,22.67
2018-03-22T13:24:17.587Z,23.80
2018-03-22T13:26:45.074Z,24.23
2018-03-22T13:29:12.612Z,22.47
2018-03-22T13:31:40.855Z,22.00
2018-03-22T13:34:08.328Z,21.23
2018-03-22T13:36:35.789Z,22.43
2018-03-22T13:39:03.264Z,21.60
2018-03-22T13:41:31.498Z,21.67
2018-03-22T13:43:59.041Z,21.17
2018-03-22T13:46:26.507Z,21.87
2018-03-22T13:48:54.608Z,22.13
2018-03-22T13:51:22.083Z,21.53
2018-03-22T13:53:50.347Z,21.73
2018-03-22T13:56:18.579Z,21.07
2018-03-22T13:58:46.053Z,20.73
2018-03-22T14:01:13.633Z,21.10
2018-03-22T14:03:41.203Z,19.90
2018-03-22T14:06:09.470Z,20.53
2018-03-22T14:08:37.029Z,21.03
2018-03-22T14:11:05.009Z,22.30
2018-03-22T14:13:33.517Z,23.47
2018-03-22T14:16:01.075Z,22.87
2018-03-22T14:18:28.563Z,22.17
2018-03-22T14:20:56.035Z,22.53
2018-03-22T14:23:23.508Z,22.07
2018-03-22T14:25:51.422Z,23.83
2018-03-22T14:28:18.929Z,23.10
2018-03-22T14:30:46.707Z,23.47
2018-03-22T14:33:15.074Z,23.87
2018-03-22T14:35:42.545Z,22.67
2018-03-22T14:38:10.779Z,23.07
2018-03-22T14:40:38.251Z,24.37
2018-03-22T14:43:05.771Z,21.53
2018-03-22T14:45:33.238Z,21.93
2018-03-22T14:48:00.708Z,22.07
2018-03-22T14:50:28.193Z,21.27
2018-03-22T14:52:56.685Z,21.17
2018-03-22T14:55:24.928Z,21.50
2018-03-22T14:57:52.403Z,20.93
2018-03-22T15:00:19.865Z,21.57
2018-03-22T15:02:47.346Z,23.00
2018-03-22T15:05:14.822Z,22.77
2018-03-22T15:07:42.293Z,24.67
2018-03-22T15:10:09.762Z,21.77
2018-03-22T15:12:37.260Z,21.83
2018-03-22T15:15:05.560Z,23.70
2018-03-22T15:17:33.023Z,23.27
2018-03-22T15:20:00.523Z,23.00
2018-03-22T15:22:27.993Z,21.03
2018-03-22T15:24:55.753Z,21.77
2018-03-22T15:27:23.827Z,22.20
2018-03-22T15:29:51.302Z,24.40
2018-03-22T15:32:19.557Z,23.70
2018-03-22T15:34:47.027Z,24.23
2018-03-22T15:37:15.270Z,23.60
2018-03-22T15:39:42.761Z,22.07
2018-03-22T15:42:11.049Z,21.77
2018-03-22T15:44:39.292Z,23.03
2018-03-22T15:47:06.861Z,23.73
2018-03-22T15:49:34.423Z,24.57
2018-03-22T15:52:02.662Z,25.43
2018-03-22T15:54:30.127Z,24.03
2018-03-22T15:57:01.914Z,25.03
2018-03-22T15:59:30.167Z,23.97
2018-03-22T16:01:57.634Z,26.00
2018-03-22T16:04:25.246Z,23.20
2018-03-22T16:06:52.846Z,23.67
2018-03-22T16:09:20.323Z,24.63
2018-03-22T16:11:48.575Z,23.77
2018-03-22T16:14:16.051Z,23.33
2018-03-22T16:16:43.598Z,25.57
2018-03-22T16:19:11.074Z,24.23
2018-03-22T16:21:39.313Z,25.63
2018-03-22T16:24:06.802Z,24.97
2018-03-22T16:26:35.095Z,24.77
2018-03-22T16:29:03.418Z,25.30
2018-03-22T16:31:30.910Z,25.37
2018-03-22T16:33:58.467Z,25.17
2018-03-22T16:36:26.035Z,26.50
2018-03-22T16:38:54.269Z,25.40
2018-03-22T16:41:22.003Z,25.40
2018-03-22T16:43:49.467Z,26.97
2018-03-22T16:46:17.346Z,26.13
2018-03-22T16:48:45.535Z,25.23
2018-03-22T16:51:13.022Z,29.13
2018-03-22T16:53:40.578Z,26.33
2018-03-22T16:56:08.054Z,28.33
2018-03-22T16:58:36.295Z,26.80
2018-03-22T17:01:03.779Z,27.00
2018-03-22T17:03:32.015Z,28.20
2018-03-22T17:05:59.502Z,25.57
2018-03-22T17:08:26.983Z,25.30
2018-03-22T17:10:54.498Z,25.90
2018-03-22T17:13:21.961Z,26.77
2018-03-22T17:15:50.133Z,27.17
2018-03-22T17:18:17.607Z,27.87
2018-03-22T17:20:45.078Z,25.73
2018-03-22T17:23:13.309Z,25.30
2018-03-22T17:25:40.770Z,23.57
2018-03-22T17:28:09.647Z,25.43
2018-03-22T17:30:37.141Z,25.70
2018-03-22T17:33:04.694Z,29.83
2018-03-22T17:35:32.566Z,27.17
2018-03-22T17:38:00.147Z,26.27
2018-03-22T17:40:28.387Z,27.10
2018-03-22T17:42:55.858Z,24.17
2018-03-22T17:45:24.123Z,23.03
2018-03-22T17:47:51.741Z,26.30
2018-03-22T17:50:19.145Z,25.57
2018-03-22T17:52:46.707Z,25.03
2018-03-22T17:55:14.270Z,25.93
2018-03-22T17:57:42.654Z,26.23
2018-03-22T18:00:10.090Z,25.37
2018-03-22T18:02:37.554Z,24.77
2018-03-22T18:05:05.118Z,24.43
2018-03-22T18:07:32.673Z,25.40
2018-03-22T18:10:01.069Z,24.50
2018-03-22T18:12:29.327Z,25.17
2018-03-22T18:14:56.785Z,25.00
2018-03-22T18:17:24.351Z,25.70
2018-03-22T18:19:52.645Z,23.57
2018-03-22T18:22:20.286Z,24.47
2018-03-22T18:24:48.563Z,27.40
2018-03-22T18:27:16.815Z,26.03
2018-03-22T18:29:44.407Z,27.00
2018-03-22T18:32:11.882Z,26.77
2018-03-22T18:34:39.451Z,27.80
2018-03-22T18:37:07.637Z,27.80
2018-03-22T18:39:35.125Z,27.67
2018-03-22T18:42:02.608Z,28.63
2018-03-22T18:44:30.565Z,28.07
2018-03-22T18:46:58.810Z,28.17
2018-03-22T18:49:26.344Z,31.37
2018-03-22T18:51:54.375Z,28.97
2018-03-22T18:54:22.746Z,32.80
2018-03-22T18:56:50.306Z,29.87
2018-03-22T18:59:18.897Z,29.77
2018-03-22T19:01:47.162Z,32.07
2018-03-22T19:04:14.630Z,33.27
2018-03-22T19:06:43.006Z,31.67
2018-03-22T19:09:11.290Z,29.07
2018-03-22T19:11:39.547Z,31.87
2018-03-22T19:14:07.229Z,32.47
2018-03-22T19:16:35.466Z,29.87
2018-03-22T19:19:03.000Z,32.60
2018-03-22T19:21:30.514Z,30.67
2018-03-22T19:23:58.785Z,33.10
2018-03-22T19:26:27.480Z,33.50
2018-03-22T19:28:55.726Z,35.10
2018-03-22T19:31:23.199Z,36.30
2018-03-22T19:33:51.262Z,32.83
2018-03-22T19:36:19.659Z,35.57
2018-03-22T19:38:47.886Z,36.00
2018-03-22T19:41:15.466Z,33.97
2018-03-22T19:43:43.005Z,33.10
2018-03-22T19:46:10.554Z,32.47
2018-03-22T19:48:38.043Z,40.10
2018-03-22T19:51:07.017Z,38.37
2018-03-22T19:53:34.516Z,43.00
2018-03-22T19:56:02.824Z,37.37
2018-03-22T19:58:30.441Z,36.07
2018-03-22T20:00:58.517Z,35.27
2018-03-22T20:03:26.628Z,33.87
2018-03-22T20:05:54.242Z,35.73
2018-03-22T20:08:22.377Z,38.40
2018-03-22T20:10:49.998Z,37.50
2018-03-22T20:13:18.250Z,37.50
2018-03-22T20:15:45.815Z,37.87
2018-03-22T20:18:13.365Z,40.40
2018-03-22T20:20:40.852Z,37.40
2018-03-22T20:23:09.261Z,38.63
2018-03-22T20:25:37.075Z,38.57
2018-03-22T20:28:06.062Z,36.97
2018-03-22T20:30:33.667Z,41.07
2018-03-22T20:33:01.194Z,38.70
2018-03-22T20:35:29.443Z,37.40
2018-03-22T20:37:57.029Z,41.00
2018-03-22T20:40:25.272Z,42.80
2018-03-22T20:42:52.741Z,40.07
2018-03-22T20:45:20.210Z,36.87
2018-03-22T20:47:48.438Z,41.87
2018-03-22T20:50:16.042Z,41.50
2018-03-22T20:52:43.802Z,53.07
2018-03-22T20:55:11.656Z,39.90
2018-03-22T20:57:39.145Z,42.00
2018-03-22T21:00:07.400Z,40.90
2018-03-22T21:02:35.234Z,42.50
2018-03-22T21:05:02.765Z,42.27
2018-03-22T21:07:30.291Z,42.03
2018-03-22T21:09:58.528Z,44.93
2018-03-22T21:12:26.054Z,43.37
2018-03-22T21:14:53.731Z,40.77
2018-03-22T21:17:21.929Z,41.73
2018-03-22T21:19:49.455Z,40.47
2018-03-22T21:22:17.200Z,41.57
2018-03-22T21:24:45.937Z,41.43
2018-03-22T21:27:13.523Z,46.53
2018-03-22T21:29:41.075Z,45.03
2018-03-22T21:32:09.275Z,40.80
2018-03-22T21:34:37.509Z,46.10
2018-03-22T21:37:04.977Z,43.23
2018-03-22T21:39:32.446Z,47.87
2018-03-22T21:42:06.450Z,43.87
2018-03-22T21:44:34.193Z,45.30
2018-03-22T21:47:13.686Z,46.93
2018-03-22T21:49:41.916Z,47.73
2018-03-22T21:52:21.385Z,45.93
2018-03-22T21:54:48.947Z,48.37
2018-03-22T21:57:17.174Z,42.07
2018-03-22T21:59:44.808Z,53.13
2018-03-22T22:02:12.433Z,46.43
2018-03-22T22:04:40.305Z,46.77
2018-03-22T22:07:08.571Z,54.47
2018-03-22T22:09:36.039Z,41.07
2018-03-22T22:12:04.666Z,46.57
2018-03-22T22:14:32.179Z,42.87
2018-03-22T22:17:00.562Z,42.87
2018-03-22T22:19:28.109Z,43.27
2018-03-22T22:21:55.681Z,44.83
2018-03-22T22:24:24.422Z,44.47
2018-03-22T22:26:51.906Z,46.80
2018-03-22T22:29:19.381Z,51.17
2018-03-22T22:31:48.015Z,43.60
2018-03-22T22:34:15.525Z,57.27
2018-03-22T22:36:43.805Z,54.80
2018-03-22T22:39:12.085Z,49.73
2018-03-22T22:41:40.327Z,48.17
2018-03-22T22:44:07.790Z,52.13
2018-03-22T22:46:35.497Z,48.90
2018-03-22T22:49:03.106Z,42.47
2018-03-22T22:51:30.746Z,40.40
2018-03-22T22:53:58.343Z,45.03
2018-03-22T22:56:25.878Z,44.63
2018-03-22T22:58:53.466Z,44.60
2018-03-22T23:01:21.734Z,48.40
2018-03-22T23:03:49.503Z,41.00
2018-03-22T23:06:17.787Z,41.23
2018-03-22T23:08:46.057Z,43.67
2018-03-22T23:11:14.294Z,41.10
2018-03-22T23:13:41.761Z,43.87
2018-03-22T23:16:09.257Z,43.47
2018-03-22T23:18:37.496Z,41.67
2018-03-22T23:21:05.275Z,43.47
2018-03-22T23:23:32.793Z,50.47
2018-03-22T23:26:00.854Z,47.37
2018-03-22T23:28:28.400Z,45.13
2018-03-22T23:30:55.950Z,53.73
2018-03-22T23:33:23.547Z,58.30
2018-03-22T23:35:51.026Z,62.53
2018-03-22T23:38:18.518Z,58.43
2018-03-22T23:40:46.778Z,52.77
2018-03-22T23:43:15.052Z,52.70
2018-03-22T23:45:43.363Z,51.17
2018-03-22T23:48:10.885Z,50.17
2018-03-22T23:50:38.547Z,47.93
2018-03-22T23:53:06.794Z,52.27
2018-03-22T23:55:34.270Z,45.67
2018-03-22T23:58:01.858Z,54.97
